sensor_id;sensor_type;location;lat;lon;timestamp;P1;durP1;ratioP1;P2;durP2;ratioP2
944;SDS011;459;48.676;9.034;2022-12-29T00:00:47;1.40;;;1.30;;
944;SDS011;459;48.676;9.034;2022-12-29T00:03:12;2.13;;;1.97;;
944;SDS011;459;48.676;9.034;2022-12-29T00:05:37;1.93;;;1.70;;
944;SDS011;459;48.676;9.034;2022-12-29T00:08:03;1.50;;;1.30;;
944;SDS011;459;48.676;9.034;2022-12-29T00:10:28;2.47;;;1.63;;
944;SDS011;459;48.676;9.034;2022-12-29T00:12:53;4.33;;;1.80;;
944;SDS011;459;48.676;9.034;2022-12-29T00:15:37;2.17;;;1.50;;
944;SDS011;459;48.676;9.034;2022-12-29T00:18:02;2.20;;;1.57;;
944;SDS011;459;48.676;9.034;2022-12-29T00:20:27;4.50;;;1.67;;
944;SDS011;459;48.676;9.034;2022-12-29T00:23:11;2.37;;;1.60;;
944;SDS011;459;48.676;9.034;2022-12-29T00:25:55;1.50;;;1.40;;
944;SDS011;459;48.676;9.034;2022-12-29T00:28:38;2.90;;;1.80;;
944;SDS011;459;48.676;9.034;2022-12-29T00:31:22;2.67;;;1.50;;
944;SDS011;459;48.676;9.034;2022-12-29T00:34:07;1.50;;;1.40;;
944;SDS011;459;48.676;9.034;2022-12-29T00:36:51;2.43;;;1.63;;
944;SDS011;459;48.676;9.034;2022-12-29T00:39:16;1.40;;;1.30;;
944;SDS011;459;48.676;9.034;2022-12-29T00:42:05;3.27;;;1.57;;
944;SDS011;459;48.676;9.034;2022-12-29T00:44:49;3.90;;;1.30;;
944;SDS011;459;48.676;9.034;2022-12-29T00:47:14;2.50;;;1.48;;
944;SDS011;459;48.676;9.034;2022-12-29T00:49:40;2.23;;;1.33;;
944;SDS011;459;48.676;9.034;2022-12-29T00:52:06;1.83;;;1.15;;
944;SDS011;459;48.676;9.034;2022-12-29T00:54:32;1.57;;;1.47;;
944;SDS011;459;48.676;9.034;2022-12-29T00:56:58;1.77;;;1.13;;
944;SDS011;459;48.676;9.034;2022-12-29T00:59:23;2.50;;;1.27;;
944;SDS011;459;48.676;9.034;2022-12-29T01:01:49;2.77;;;1.20;;
944;SDS011;459;48.676;9.034;2022-12-29T01:04:14;1.80;;;1.70;;
944;SDS011;459;48.676;9.034;2022-12-29T01:06:40;2.23;;;1.60;;
944;SDS011;459;48.676;9.034;2022-12-29T01:09:05;2.13;;;1.40;;
944;SDS011;459;48.676;9.034;2022-12-29T01:11:49;5.47;;;2.03;;
944;SDS011;459;48.676;9.034;2022-12-29T01:14:14;12.77;;;2.70;;
944;SDS011;459;48.676;9.034;2022-12-29T01:16:39;2.00;;;1.50;;
944;SDS011;459;48.676;9.034;2022-12-29T01:19:05;3.42;;;2.03;;
944;SDS011;459;48.676;9.034;2022-12-29T01:21:30;1.63;;;1.33;;
944;SDS011;459;48.676;9.034;2022-12-29T01:23:55;1.47;;;1.00;;
944;SDS011;459;48.676;9.034;2022-12-29T01:26:21;2.10;;;1.20;;
944;SDS011;459;48.676;9.034;2022-12-29T01:28:46;1.33;;;1.23;;
944;SDS011;459;48.676;9.034;2022-12-29T01:31:12;1.47;;;1.37;;
944;SDS011;459;48.676;9.034;2022-12-29T01:33:37;1.37;;;1.10;;
944;SDS011;459;48.676;9.034;2022-12-29T01:36:07;2.60;;;1.30;;
944;SDS011;459;48.676;9.034;2022-12-29T01:38:32;2.77;;;1.83;;
944;SDS011;459;48.676;9.034;2022-12-29T01:40:58;2.10;;;1.30;;
944;SDS011;459;48.676;9.034;2022-12-29T01:43:38;2.23;;;1.60;;
944;SDS011;459;48.676;9.034;2022-12-29T01:46:03;8.63;;;1.30;;
944;SDS011;459;48.676;9.034;2022-12-29T01:48:29;2.90;;;1.53;;
944;SDS011;459;48.676;9.034;2022-12-29T01:50:54;2.27;;;1.80;;
944;SDS011;459;48.676;9.034;2022-12-29T01:53:21;1.40;;;1.30;;
944;SDS011;459;48.676;9.034;2022-12-29T01:55:51;1.63;;;1.53;;
944;SDS011;459;48.676;9.034;2022-12-29T01:58:18;2.73;;;1.70;;
944;SDS011;459;48.676;9.034;2022-12-29T02:00:43;2.20;;;1.20;;
944;SDS011;459;48.676;9.034;2022-12-29T02:03:09;3.87;;;1.67;;
944;SDS011;459;48.676;9.034;2022-12-29T02:08:03;3.60;;;1.50;;
944;SDS011;459;48.676;9.034;2022-12-29T02:10:30;1.97;;;1.47;;
944;SDS011;459;48.676;9.034;2022-12-29T02:12:56;2.97;;;1.67;;
944;SDS011;459;48.676;9.034;2022-12-29T02:18:38;3.00;;;1.37;;
944;SDS011;459;48.676;9.034;2022-12-29T02:23:53;0.80;;;0.80;;
944;SDS011;459;48.676;9.034;2022-12-29T02:28:53;1.57;;;1.10;;
944;SDS011;459;48.676;9.034;2022-12-29T02:36:21;3.57;;;1.10;;
944;SDS011;459;48.676;9.034;2022-12-29T02:41:46;1.87;;;1.27;;
944;SDS011;459;48.676;9.034;2022-12-29T02:44:15;1.67;;;1.00;;
944;SDS011;459;48.676;9.034;2022-12-29T02:49:11;1.90;;;1.20;;
944;SDS011;459;48.676;9.034;2022-12-29T02:51:40;1.70;;;1.60;;
944;SDS011;459;48.676;9.034;2022-12-29T02:54:08;0.97;;;0.83;;
944;SDS011;459;48.676;9.034;2022-12-29T02:56:52;1.70;;;1.30;;
944;SDS011;459;48.676;9.034;2022-12-29T02:59:17;1.37;;;1.20;;
944;SDS011;459;48.676;9.034;2022-12-29T03:04:45;2.23;;;1.00;;
944;SDS011;459;48.676;9.034;2022-12-29T03:07:18;1.00;;;0.90;;
944;SDS011;459;48.676;9.034;2022-12-29T03:09:57;1.90;;;1.20;;
944;SDS011;459;48.676;9.034;2022-12-29T03:15:13;2.30;;;1.53;;
944;SDS011;459;48.676;9.034;2022-12-29T03:18:03;1.50;;;1.40;;
944;SDS011;459;48.676;9.034;2022-12-29T03:20:38;2.83;;;1.47;;
944;SDS011;459;48.676;9.034;2022-12-29T03:23:04;4.63;;;1.70;;
944;SDS011;459;48.676;9.034;2022-12-29T03:25:31;1.73;;;1.07;;
944;SDS011;459;48.676;9.034;2022-12-29T03:27:58;1.20;;;0.80;;
944;SDS011;459;48.676;9.034;2022-12-29T03:30:26;1.83;;;1.13;;
944;SDS011;459;48.676;9.034;2022-12-29T03:32:57;1.13;;;0.83;;
944;SDS011;459;48.676;9.034;2022-12-29T03:35:25;5.03;;;1.00;;
944;SDS011;459;48.676;9.034;2022-12-29T03:40:55;0.87;;;0.80;;
944;SDS011;459;48.676;9.034;2022-12-29T03:43:21;3.53;;;1.00;;
944;SDS011;459;48.676;9.034;2022-12-29T03:45:46;1.27;;;0.87;;
944;SDS011;459;48.676;9.034;2022-12-29T03:48:12;0.93;;;0.93;;
944;SDS011;459;48.676;9.034;2022-12-29T03:50:37;1.37;;;1.03;;
944;SDS011;459;48.676;9.034;2022-12-29T03:53:02;2.10;;;1.47;;
944;SDS011;459;48.676;9.034;2022-12-29T03:55:27;1.63;;;1.23;;
944;SDS011;459;48.676;9.034;2022-12-29T03:57:53;1.20;;;1.10;;
944;SDS011;459;48.676;9.034;2022-12-29T04:00:18;2.07;;;1.77;;
944;SDS011;459;48.676;9.034;2022-12-29T04:02:43;1.50;;;1.23;;
944;SDS011;459;48.676;9.034;2022-12-29T04:05:08;1.17;;;1.07;;
944;SDS011;459;48.676;9.034;2022-12-29T04:07:33;3.13;;;1.20;;
944;SDS011;459;48.676;9.034;2022-12-29T04:09:58;3.23;;;1.30;;
944;SDS011;459;48.676;9.034;2022-12-29T04:12:24;1.53;;;1.23;;
944;SDS011;459;48.676;9.034;2022-12-29T04:14:49;1.63;;;1.40;;
944;SDS011;459;48.676;9.034;2022-12-29T04:17:14;2.33;;;1.13;;
944;SDS011;459;48.676;9.034;2022-12-29T04:19:39;3.20;;;1.53;;
944;SDS011;459;48.676;9.034;2022-12-29T04:22:04;3.23;;;1.20;;
944;SDS011;459;48.676;9.034;2022-12-29T04:24:30;1.60;;;1.50;;
944;SDS011;459;48.676;9.034;2022-12-29T04:26:55;1.20;;;1.10;;
944;SDS011;459;48.676;9.034;2022-12-29T04:29:20;2.33;;;1.53;;
944;SDS011;459;48.676;9.034;2022-12-29T04:31:45;1.73;;;1.40;;
944;SDS011;459;48.676;9.034;2022-12-29T04:34:10;1.40;;;1.30;;
944;SDS011;459;48.676;9.034;2022-12-29T04:36:35;2.40;;;1.33;;
944;SDS011;459;48.676;9.034;2022-12-29T04:39:01;1.23;;;1.00;;
944;SDS011;459;48.676;9.034;2022-12-29T04:41:26;2.83;;;1.43;;
944;SDS011;459;48.676;9.034;2022-12-29T04:43:51;1.10;;;0.83;;
944;SDS011;459;48.676;9.034;2022-12-29T04:46:16;2.77;;;1.63;;
944;SDS011;459;48.676;9.034;2022-12-29T04:48:41;1.37;;;1.00;;
944;SDS011;459;48.676;9.034;2022-12-29T04:51:06;2.87;;;1.83;;
944;SDS011;459;48.676;9.034;2022-12-29T04:53:32;2.57;;;1.40;;
944;SDS011;459;48.676;9.034;2022-12-29T04:55:57;2.33;;;1.77;;
944;SDS011;459;48.676;9.034;2022-12-29T04:58:22;1.53;;;0.80;;
944;SDS011;459;48.676;9.034;2022-12-29T05:00:47;1.83;;;1.30;;
944;SDS011;459;48.676;9.034;2022-12-29T05:03:12;1.70;;;1.13;;
944;SDS011;459;48.676;9.034;2022-12-29T05:05:38;1.13;;;1.03;;
944;SDS011;459;48.676;9.034;2022-12-29T05:08:03;2.03;;;1.40;;
944;SDS011;459;48.676;9.034;2022-12-29T05:10:28;2.20;;;1.30;;
944;SDS011;459;48.676;9.034;2022-12-29T05:12:53;2.13;;;1.93;;
944;SDS011;459;48.676;9.034;2022-12-29T05:15:19;2.37;;;1.60;;
944;SDS011;459;48.676;9.034;2022-12-29T05:17:44;2.70;;;1.30;;
944;SDS011;459;48.676;9.034;2022-12-29T05:20:09;1.13;;;1.00;;
944;SDS011;459;48.676;9.034;2022-12-29T05:22:34;4.80;;;1.73;;
944;SDS011;459;48.676;9.034;2022-12-29T05:25:00;1.10;;;0.80;;
944;SDS011;459;48.676;9.034;2022-12-29T05:27:25;1.60;;;1.40;;
944;SDS011;459;48.676;9.034;2022-12-29T05:29:50;2.93;;;1.60;;
944;SDS011;459;48.676;9.034;2022-12-29T05:32:15;3.10;;;2.00;;
944;SDS011;459;48.676;9.034;2022-12-29T05:34:40;2.50;;;1.50;;
944;SDS011;459;48.676;9.034;2022-12-29T05:37:06;3.23;;;1.20;;
944;SDS011;459;48.676;9.034;2022-12-29T05:39:31;3.57;;;1.80;;
944;SDS011;459;48.676;9.034;2022-12-29T05:41:56;2.80;;;2.23;;
944;SDS011;459;48.676;9.034;2022-12-29T05:44:21;1.50;;;1.17;;
944;SDS011;459;48.676;9.034;2022-12-29T05:46:46;1.77;;;1.47;;
944;SDS011;459;48.676;9.034;2022-12-29T05:49:12;1.60;;;1.50;;
944;SDS011;459;48.676;9.034;2022-12-29T05:51:37;2.03;;;1.60;;
944;SDS011;459;48.676;9.034;2022-12-29T05:54:02;1.67;;;1.50;;
944;SDS011;459;48.676;9.034;2022-12-29T05:56:27;1.47;;;1.20;;
944;SDS011;459;48.676;9.034;2022-12-29T05:58:52;1.17;;;0.73;;
944;SDS011;459;48.676;9.034;2022-12-29T06:01:17;1.83;;;1.60;;
944;SDS011;459;48.676;9.034;2022-12-29T06:03:43;1.40;;;1.30;;
944;SDS011;459;48.676;9.034;2022-12-29T06:06:08;1.50;;;1.40;;
944;SDS011;459;48.676;9.034;2022-12-29T06:08:33;0.90;;;0.63;;
944;SDS011;459;48.676;9.034;2022-12-29T06:10:58;1.30;;;1.10;;
944;SDS011;459;48.676;9.034;2022-12-29T06:13:23;4.50;;;1.90;;
944;SDS011;459;48.676;9.034;2022-12-29T06:15:49;1.70;;;1.40;;
944;SDS011;459;48.676;9.034;2022-12-29T06:18:14;2.40;;;1.20;;
944;SDS011;459;48.676;9.034;2022-12-29T06:20:39;3.60;;;1.80;;
944;SDS011;459;48.676;9.034;2022-12-29T06:23:04;1.87;;;1.70;;
944;SDS011;459;48.676;9.034;2022-12-29T06:25:29;1.30;;;1.20;;
944;SDS011;459;48.676;9.034;2022-12-29T06:27:57;1.53;;;1.43;;
944;SDS011;459;48.676;9.034;2022-12-29T06:30:22;1.70;;;1.20;;
944;SDS011;459;48.676;9.034;2022-12-29T06:32:47;2.40;;;1.70;;
944;SDS011;459;48.676;9.034;2022-12-29T06:35:12;1.90;;;1.23;;
944;SDS011;459;48.676;9.034;2022-12-29T06:37:37;2.40;;;1.30;;
944;SDS011;459;48.676;9.034;2022-12-29T06:40:03;3.13;;;1.27;;
944;SDS011;459;48.676;9.034;2022-12-29T06:42:28;3.00;;;1.30;;
944;SDS011;459;48.676;9.034;2022-12-29T06:44:53;1.10;;;0.90;;
944;SDS011;459;48.676;9.034;2022-12-29T06:47:18;4.40;;;1.67;;
944;SDS011;459;48.676;9.034;2022-12-29T06:49:44;8.27;;;2.10;;
944;SDS011;459;48.676;9.034;2022-12-29T06:52:09;1.67;;;1.17;;
944;SDS011;459;48.676;9.034;2022-12-29T06:54:34;1.20;;;1.00;;
944;SDS011;459;48.676;9.034;2022-12-29T06:56:59;2.00;;;1.17;;
944;SDS011;459;48.676;9.034;2022-12-29T06:59:25;3.77;;;1.80;;
944;SDS011;459;48.676;9.034;2022-12-29T07:01:50;3.73;;;1.60;;
944;SDS011;459;48.676;9.034;2022-12-29T07:04:16;1.77;;;1.00;;
944;SDS011;459;48.676;9.034;2022-12-29T07:06:41;1.20;;;1.10;;
944;SDS011;459;48.676;9.034;2022-12-29T07:09:06;2.13;;;1.27;;
944;SDS011;459;48.676;9.034;2022-12-29T07:11:32;2.23;;;1.87;;
944;SDS011;459;48.676;9.034;2022-12-29T07:13:57;2.13;;;1.33;;
944;SDS011;459;48.676;9.034;2022-12-29T07:16:22;1.93;;;1.30;;
944;SDS011;459;48.676;9.034;2022-12-29T07:18:47;1.67;;;1.57;;
944;SDS011;459;48.676;9.034;2022-12-29T07:21:12;1.53;;;1.30;;
944;SDS011;459;48.676;9.034;2022-12-29T07:23:38;1.53;;;1.37;;
944;SDS011;459;48.676;9.034;2022-12-29T07:26:04;2.80;;;1.67;;
944;SDS011;459;48.676;9.034;2022-12-29T07:28:29;3.23;;;1.50;;
944;SDS011;459;48.676;9.034;2022-12-29T07:30:54;1.97;;;1.60;;
944;SDS011;459;48.676;9.034;2022-12-29T07:33:20;2.30;;;1.40;;
944;SDS011;459;48.676;9.034;2022-12-29T07:35:45;2.43;;;1.90;;
944;SDS011;459;48.676;9.034;2022-12-29T07:38:10;1.47;;;1.37;;
944;SDS011;459;48.676;9.034;2022-12-29T07:40:35;2.60;;;1.40;;
944;SDS011;459;48.676;9.034;2022-12-29T07:43:00;0.93;;;0.93;;
944;SDS011;459;48.676;9.034;2022-12-29T07:45:26;2.10;;;1.20;;
944;SDS011;459;48.676;9.034;2022-12-29T07:47:51;1.53;;;1.43;;
944;SDS011;459;48.676;9.034;2022-12-29T07:50:16;2.10;;;1.50;;
944;SDS011;459;48.676;9.034;2022-12-29T07:52:41;2.03;;;1.57;;
944;SDS011;459;48.676;9.034;2022-12-29T07:55:07;1.73;;;1.50;;
944;SDS011;459;48.676;9.034;2022-12-29T07:57:32;1.57;;;1.40;;
944;SDS011;459;48.676;9.034;2022-12-29T07:59:57;1.60;;;1.33;;
944;SDS011;459;48.676;9.034;2022-12-29T08:02:22;2.13;;;1.30;;
944;SDS011;459;48.676;9.034;2022-12-29T08:04:47;1.50;;;1.40;;
944;SDS011;459;48.676;9.034;2022-12-29T08:07:13;3.00;;;1.37;;
944;SDS011;459;48.676;9.034;2022-12-29T08:09:38;2.33;;;1.70;;
944;SDS011;459;48.676;9.034;2022-12-29T08:12:03;2.40;;;1.70;;
944;SDS011;459;48.676;9.034;2022-12-29T08:14:28;1.13;;;0.93;;
944;SDS011;459;48.676;9.034;2022-12-29T08:16:53;0.70;;;0.70;;
944;SDS011;459;48.676;9.034;2022-12-29T08:19:19;2.20;;;1.50;;
944;SDS011;459;48.676;9.034;2022-12-29T08:21:44;2.40;;;1.40;;
944;SDS011;459;48.676;9.034;2022-12-29T08:24:09;2.83;;;1.30;;
944;SDS011;459;48.676;9.034;2022-12-29T08:26:35;3.50;;;1.90;;
944;SDS011;459;48.676;9.034;2022-12-29T08:29:00;2.43;;;1.30;;
944;SDS011;459;48.676;9.034;2022-12-29T08:31:25;2.80;;;1.90;;
944;SDS011;459;48.676;9.034;2022-12-29T08:33:50;1.27;;;1.10;;
944;SDS011;459;48.676;9.034;2022-12-29T08:36:15;1.40;;;1.30;;
944;SDS011;459;48.676;9.034;2022-12-29T08:38:40;2.73;;;1.37;;
944;SDS011;459;48.676;9.034;2022-12-29T08:41:06;1.77;;;1.50;;
944;SDS011;459;48.676;9.034;2022-12-29T08:43:31;1.67;;;1.57;;
944;SDS011;459;48.676;9.034;2022-12-29T08:45:59;1.70;;;1.33;;
944;SDS011;459;48.676;9.034;2022-12-29T08:48:25;1.83;;;1.60;;
944;SDS011;459;48.676;9.034;2022-12-29T08:50:50;1.10;;;1.00;;
944;SDS011;459;48.676;9.034;2022-12-29T08:53:16;1.90;;;1.10;;
944;SDS011;459;48.676;9.034;2022-12-29T08:55:44;1.80;;;1.67;;
944;SDS011;459;48.676;9.034;2022-12-29T08:58:09;1.87;;;1.10;;
944;SDS011;459;48.676;9.034;2022-12-29T09:00:39;4.00;;;1.70;;
944;SDS011;459;48.676;9.034;2022-12-29T09:03:04;1.83;;;1.33;;
944;SDS011;459;48.676;9.034;2022-12-29T09:05:29;1.57;;;1.13;;
944;SDS011;459;48.676;9.034;2022-12-29T09:07:54;2.30;;;1.60;;
944;SDS011;459;48.676;9.034;2022-12-29T09:10:19;3.00;;;1.07;;
944;SDS011;459;48.676;9.034;2022-12-29T09:12:45;1.70;;;1.23;;
944;SDS011;459;48.676;9.034;2022-12-29T09:15:10;2.23;;;1.43;;
944;SDS011;459;48.676;9.034;2022-12-29T09:17:35;2.83;;;1.50;;
944;SDS011;459;48.676;9.034;2022-12-29T09:20:08;2.13;;;1.20;;
944;SDS011;459;48.676;9.034;2022-12-29T09:22:34;2.60;;;1.30;;
944;SDS011;459;48.676;9.034;2022-12-29T09:24:59;5.37;;;1.10;;
944;SDS011;459;48.676;9.034;2022-12-29T09:27:24;2.63;;;1.47;;
944;SDS011;459;48.676;9.034;2022-12-29T09:29:49;2.07;;;1.50;;
944;SDS011;459;48.676;9.034;2022-12-29T09:32:14;1.37;;;1.20;;
944;SDS011;459;48.676;9.034;2022-12-29T09:34:40;0.80;;;0.80;;
944;SDS011;459;48.676;9.034;2022-12-29T09:37:05;6.50;;;2.40;;
944;SDS011;459;48.676;9.034;2022-12-29T09:39:30;2.20;;;1.00;;
944;SDS011;459;48.676;9.034;2022-12-29T09:42:01;2.00;;;1.60;;
944;SDS011;459;48.676;9.034;2022-12-29T09:44:41;3.07;;;1.20;;
944;SDS011;459;48.676;9.034;2022-12-29T09:47:10;1.10;;;1.00;;
944;SDS011;459;48.676;9.034;2022-12-29T09:49:47;1.20;;;1.10;;
944;SDS011;459;48.676;9.034;2022-12-29T09:52:25;2.60;;;1.30;;
944;SDS011;459;48.676;9.034;2022-12-29T09:54:58;1.27;;;1.17;;
944;SDS011;459;48.676;9.034;2022-12-29T09:59:59;1.37;;;1.27;;
944;SDS011;459;48.676;9.034;2022-12-29T10:02:32;1.47;;;1.00;;
944;SDS011;459;48.676;9.034;2022-12-29T10:04:58;1.67;;;1.17;;
944;SDS011;459;48.676;9.034;2022-12-29T10:12:53;3.53;;;1.13;;
944;SDS011;459;48.676;9.034;2022-12-29T10:15:34;1.10;;;1.00;;
944;SDS011;459;48.676;9.034;2022-12-29T10:23:44;2.40;;;1.03;;
944;SDS011;459;48.676;9.034;2022-12-29T10:26:12;2.20;;;1.40;;
944;SDS011;459;48.676;9.034;2022-12-29T10:28:40;1.30;;;1.20;;
944;SDS011;459;48.676;9.034;2022-12-29T10:31:09;2.13;;;1.80;;
944;SDS011;459;48.676;9.034;2022-12-29T10:33:37;2.13;;;0.90;;
944;SDS011;459;48.676;9.034;2022-12-29T10:36:38;1.70;;;1.50;;
944;SDS011;459;48.676;9.034;2022-12-29T10:39:04;3.63;;;1.57;;
944;SDS011;459;48.676;9.034;2022-12-29T10:41:39;1.80;;;1.33;;
944;SDS011;459;48.676;9.034;2022-12-29T10:44:07;2.40;;;1.70;;
944;SDS011;459;48.676;9.034;2022-12-29T10:46:34;1.87;;;1.10;;
944;SDS011;459;48.676;9.034;2022-12-29T10:49:00;2.03;;;1.30;;
944;SDS011;459;48.676;9.034;2022-12-29T10:51:36;2.70;;;1.43;;
944;SDS011;459;48.676;9.034;2022-12-29T10:54:09;1.60;;;1.30;;
944;SDS011;459;48.676;9.034;2022-12-29T10:56:39;2.17;;;1.60;;
944;SDS011;459;48.676;9.034;2022-12-29T11:01:42;2.87;;;1.30;;
944;SDS011;459;48.676;9.034;2022-12-29T11:06:48;1.20;;;1.10;;
944;SDS011;459;48.676;9.034;2022-12-29T11:09:15;4.30;;;1.43;;
944;SDS011;459;48.676;9.034;2022-12-29T11:11:41;3.23;;;1.50;;
944;SDS011;459;48.676;9.034;2022-12-29T11:14:12;2.40;;;1.60;;
944;SDS011;459;48.676;9.034;2022-12-29T11:16:38;1.83;;;1.40;;
944;SDS011;459;48.676;9.034;2022-12-29T11:19:03;3.80;;;1.53;;
944;SDS011;459;48.676;9.034;2022-12-29T11:24:01;3.60;;;2.00;;
944;SDS011;459;48.676;9.034;2022-12-29T11:26:27;2.07;;;1.57;;
944;SDS011;459;48.676;9.034;2022-12-29T11:34:07;4.13;;;1.93;;
944;SDS011;459;48.676;9.034;2022-12-29T11:36:32;2.00;;;1.17;;
944;SDS011;459;48.676;9.034;2022-12-29T11:38:58;1.97;;;1.70;;
944;SDS011;459;48.676;9.034;2022-12-29T11:41:24;2.70;;;1.30;;
944;SDS011;459;48.676;9.034;2022-12-29T11:43:50;3.20;;;2.67;;
944;SDS011;459;48.676;9.034;2022-12-29T11:46:17;1.60;;;1.10;;
944;SDS011;459;48.676;9.034;2022-12-29T11:48:43;1.33;;;1.03;;
944;SDS011;459;48.676;9.034;2022-12-29T11:51:08;1.30;;;1.20;;
944;SDS011;459;48.676;9.034;2022-12-29T11:53:38;1.37;;;1.20;;
944;SDS011;459;48.676;9.034;2022-12-29T11:56:05;2.83;;;1.10;;
944;SDS011;459;48.676;9.034;2022-12-29T11:58:32;1.57;;;1.03;;
944;SDS011;459;48.676;9.034;2022-12-29T12:01:02;1.60;;;1.27;;
944;SDS011;459;48.676;9.034;2022-12-29T12:03:28;1.33;;;1.23;;
944;SDS011;459;48.676;9.034;2022-12-29T12:05:57;2.93;;;1.60;;
944;SDS011;459;48.676;9.034;2022-12-29T12:13:37;1.60;;;1.50;;
944;SDS011;459;48.676;9.034;2022-12-29T12:16:08;4.83;;;2.20;;
944;SDS011;459;48.676;9.034;2022-12-29T12:18:39;1.73;;;1.60;;
944;SDS011;459;48.676;9.034;2022-12-29T12:21:08;2.73;;;1.60;;
944;SDS011;459;48.676;9.034;2022-12-29T12:26:11;3.13;;;1.87;;
944;SDS011;459;48.676;9.034;2022-12-29T12:28:40;1.87;;;1.77;;
944;SDS011;459;48.676;9.034;2022-12-29T12:31:13;1.90;;;1.70;;
944;SDS011;459;48.676;9.034;2022-12-29T12:33:41;2.50;;;2.30;;
944;SDS011;459;48.676;9.034;2022-12-29T12:39:05;2.43;;;1.60;;
944;SDS011;459;48.676;9.034;2022-12-29T12:41:54;1.93;;;1.20;;
944;SDS011;459;48.676;9.034;2022-12-29T12:44:28;2.20;;;2.00;;
944;SDS011;459;48.676;9.034;2022-12-29T12:52:14;4.10;;;1.90;;
944;SDS011;459;48.676;9.034;2022-12-29T12:54:49;2.40;;;1.63;;
944;SDS011;459;48.676;9.034;2022-12-29T13:05:14;5.77;;;2.47;;
944;SDS011;459;48.676;9.034;2022-12-29T13:10:21;2.73;;;1.83;;
944;SDS011;459;48.676;9.034;2022-12-29T13:18:11;1.88;;;1.67;;
944;SDS011;459;48.676;9.034;2022-12-29T13:20:41;3.20;;;2.20;;
944;SDS011;459;48.676;9.034;2022-12-29T13:33:49;3.63;;;1.67;;
944;SDS011;459;48.676;9.034;2022-12-29T13:39:05;2.87;;;1.40;;
944;SDS011;459;48.676;9.034;2022-12-29T13:41:33;2.90;;;1.60;;
944;SDS011;459;48.676;9.034;2022-12-29T13:44:00;1.63;;;1.53;;
944;SDS011;459;48.676;9.034;2022-12-29T13:46:27;1.70;;;1.60;;
944;SDS011;459;48.676;9.034;2022-12-29T13:48:55;2.03;;;1.63;;
944;SDS011;459;48.676;9.034;2022-12-29T13:51:23;4.07;;;2.50;;
944;SDS011;459;48.676;9.034;2022-12-29T13:56:20;4.83;;;2.73;;
944;SDS011;459;48.676;9.034;2022-12-29T14:01:22;2.10;;;1.90;;
944;SDS011;459;48.676;9.034;2022-12-29T14:03:55;3.77;;;2.67;;
944;SDS011;459;48.676;9.034;2022-12-29T14:06:22;3.10;;;2.10;;
944;SDS011;459;48.676;9.034;2022-12-29T14:08:49;2.30;;;2.03;;
944;SDS011;459;48.676;9.034;2022-12-29T14:11:16;2.37;;;1.97;;
944;SDS011;459;48.676;9.034;2022-12-29T14:13:43;2.50;;;2.30;;
944;SDS011;459;48.676;9.034;2022-12-29T14:16:11;6.63;;;2.17;;
944;SDS011;459;48.676;9.034;2022-12-29T14:18:46;1.87;;;1.53;;
944;SDS011;459;48.676;9.034;2022-12-29T14:23:44;2.70;;;1.87;;
944;SDS011;459;48.676;9.034;2022-12-29T14:26:11;1.80;;;1.70;;
944;SDS011;459;48.676;9.034;2022-12-29T14:28:40;3.00;;;2.17;;
944;SDS011;459;48.676;9.034;2022-12-29T14:33:40;1.83;;;1.63;;
944;SDS011;459;48.676;9.034;2022-12-29T14:36:20;2.77;;;1.90;;
944;SDS011;459;48.676;9.034;2022-12-29T14:38:45;3.10;;;2.17;;
944;SDS011;459;48.676;9.034;2022-12-29T14:41:15;2.47;;;1.70;;
944;SDS011;459;48.676;9.034;2022-12-29T14:43:40;2.77;;;1.77;;
944;SDS011;459;48.676;9.034;2022-12-29T14:46:16;2.87;;;2.23;;
944;SDS011;459;48.676;9.034;2022-12-29T14:48:42;1.90;;;1.17;;
944;SDS011;459;48.676;9.034;2022-12-29T14:51:26;2.50;;;2.00;;
944;SDS011;459;48.676;9.034;2022-12-29T14:53:52;2.20;;;1.67;;
944;SDS011;459;48.676;9.034;2022-12-29T14:56:18;1.30;;;1.20;;
944;SDS011;459;48.676;9.034;2022-12-29T14:58:52;2.17;;;1.50;;
944;SDS011;459;48.676;9.034;2022-12-29T15:01:20;3.00;;;1.93;;
944;SDS011;459;48.676;9.034;2022-12-29T15:03:46;2.50;;;1.40;;
944;SDS011;459;48.676;9.034;2022-12-29T15:06:13;1.40;;;1.30;;
944;SDS011;459;48.676;9.034;2022-12-29T15:11:20;1.60;;;1.30;;
944;SDS011;459;48.676;9.034;2022-12-29T15:13:46;3.17;;;2.17;;
944;SDS011;459;48.676;9.034;2022-12-29T15:18:47;2.80;;;2.33;;
944;SDS011;459;48.676;9.034;2022-12-29T15:21:12;2.25;;;2.05;;
944;SDS011;459;48.676;9.034;2022-12-29T15:23:38;2.00;;;1.70;;
944;SDS011;459;48.676;9.034;2022-12-29T15:26:07;1.93;;;1.73;;
944;SDS011;459;48.676;9.034;2022-12-29T15:28:43;3.23;;;2.13;;
944;SDS011;459;48.676;9.034;2022-12-29T15:31:16;1.67;;;1.53;;
944;SDS011;459;48.676;9.034;2022-12-29T15:33:46;2.67;;;1.90;;
944;SDS011;459;48.676;9.034;2022-12-29T15:36:13;3.60;;;2.00;;
944;SDS011;459;48.676;9.034;2022-12-29T15:38:39;3.30;;;2.30;;
944;SDS011;459;48.676;9.034;2022-12-29T15:46:16;4.30;;;2.13;;
944;SDS011;459;48.676;9.034;2022-12-29T15:48:42;3.20;;;1.70;;
944;SDS011;459;48.676;9.034;2022-12-29T15:51:20;4.93;;;2.03;;
944;SDS011;459;48.676;9.034;2022-12-29T15:53:47;3.30;;;1.93;;
944;SDS011;459;48.676;9.034;2022-12-29T15:56:13;3.40;;;2.03;;
944;SDS011;459;48.676;9.034;2022-12-29T15:58:40;2.57;;;2.20;;
944;SDS011;459;48.676;9.034;2022-12-29T16:01:15;2.00;;;1.80;;
944;SDS011;459;48.676;9.034;2022-12-29T16:03:41;2.07;;;1.87;;
944;SDS011;459;48.676;9.034;2022-12-29T16:06:10;3.20;;;1.93;;
944;SDS011;459;48.676;9.034;2022-12-29T16:08:55;2.40;;;2.10;;
944;SDS011;459;48.676;9.034;2022-12-29T16:11:27;3.87;;;2.30;;
944;SDS011;459;48.676;9.034;2022-12-29T16:13:55;3.70;;;2.23;;
944;SDS011;459;48.676;9.034;2022-12-29T16:16:22;2.40;;;1.97;;
944;SDS011;459;48.676;9.034;2022-12-29T16:18:50;3.17;;;1.97;;
944;SDS011;459;48.676;9.034;2022-12-29T16:21:19;1.63;;;1.50;;
944;SDS011;459;48.676;9.034;2022-12-29T16:23:46;4.37;;;1.60;;
944;SDS011;459;48.676;9.034;2022-12-29T16:26:16;1.30;;;1.20;;
944;SDS011;459;48.676;9.034;2022-12-29T16:28:41;2.40;;;2.20;;
944;SDS011;459;48.676;9.034;2022-12-29T16:31:16;2.83;;;2.53;;
944;SDS011;459;48.676;9.034;2022-12-29T16:33:46;2.43;;;2.23;;
944;SDS011;459;48.676;9.034;2022-12-29T16:38:49;4.60;;;3.80;;
944;SDS011;459;48.676;9.034;2022-12-29T16:41:27;3.40;;;3.00;;
944;SDS011;459;48.676;9.034;2022-12-29T16:44:10;4.00;;;3.30;;
944;SDS011;459;48.676;9.034;2022-12-29T16:46:36;4.87;;;3.87;;
944;SDS011;459;48.676;9.034;2022-12-29T16:49:02;3.97;;;2.67;;
944;SDS011;459;48.676;9.034;2022-12-29T16:51:28;4.40;;;3.77;;
944;SDS011;459;48.676;9.034;2022-12-29T16:53:55;3.93;;;3.20;;
944;SDS011;459;48.676;9.034;2022-12-29T16:56:21;4.27;;;3.87;;
944;SDS011;459;48.676;9.034;2022-12-29T16:58:49;3.60;;;3.20;;
944;SDS011;459;48.676;9.034;2022-12-29T17:01:15;3.57;;;3.23;;
944;SDS011;459;48.676;9.034;2022-12-29T17:03:45;3.17;;;2.90;;
944;SDS011;459;48.676;9.034;2022-12-29T17:06:17;2.57;;;2.17;;
944;SDS011;459;48.676;9.034;2022-12-29T17:08:43;2.27;;;1.90;;
944;SDS011;459;48.676;9.034;2022-12-29T17:11:30;4.93;;;2.20;;
944;SDS011;459;48.676;9.034;2022-12-29T17:16:44;2.80;;;2.00;;
944;SDS011;459;48.676;9.034;2022-12-29T17:19:12;1.90;;;1.70;;
944;SDS011;459;48.676;9.034;2022-12-29T17:21:40;1.83;;;1.73;;
944;SDS011;459;48.676;9.034;2022-12-29T17:24:09;1.60;;;1.50;;
944;SDS011;459;48.676;9.034;2022-12-29T17:26:38;3.60;;;2.53;;
944;SDS011;459;48.676;9.034;2022-12-29T17:29:03;3.50;;;2.90;;
944;SDS011;459;48.676;9.034;2022-12-29T17:31:28;4.20;;;2.80;;
944;SDS011;459;48.676;9.034;2022-12-29T17:33:54;5.60;;;3.97;;
944;SDS011;459;48.676;9.034;2022-12-29T17:36:20;6.73;;;3.60;;
944;SDS011;459;48.676;9.034;2022-12-29T17:38:45;4.30;;;3.20;;
944;SDS011;459;48.676;9.034;2022-12-29T17:41:11;7.20;;;5.77;;
944;SDS011;459;48.676;9.034;2022-12-29T17:43:38;7.40;;;4.40;;
944;SDS011;459;48.676;9.034;2022-12-29T17:46:04;7.03;;;5.03;;
944;SDS011;459;48.676;9.034;2022-12-29T17:48:30;6.90;;;5.97;;
944;SDS011;459;48.676;9.034;2022-12-29T17:50:55;5.27;;;4.03;;
944;SDS011;459;48.676;9.034;2022-12-29T17:53:28;3.30;;;3.00;;
944;SDS011;459;48.676;9.034;2022-12-29T17:55:53;4.90;;;4.40;;